Accueil
METAR-TAF:

METAR-TAF

Aéroports :

Meiringen, Suisse

latitude: 46-44-25N, longitude: 8-06-36E, altitude: 577 m

Observation

Le bulletin a été fait il y a 37 minutes, à 23:20 UTC
Vent calme
Température 13°C
Humidité 100%
Pression 1018 hPa
Visibilité: 6000 m
Quelques nuages à une hauteur de 1300 ft
Nuages fragmentés à une hauteur de 1600 ft
Nuages fragmentés à une hauteur de 4900 ft
pluie faible

METAR: LSMM 032320Z AUTO 00000KT 6000NDV -RA FEW013 BKN016 BKN049 13/13 Q1018 RMK

Heure: 01:57 (23:57 UTC)


TAF: absent

Observations et prévisions météorologiques de plus de 4000 aéroports (messages METAR et TAF).

Les stations disponibles sont représentées par des disques jaunes et rouges sur la carte.

Passer la souris dessus pour voir le nom de la station.

Cliquer dessus pour voir les observations et prévisions météorologiques.

Pour changer de carte: cliquez sur les boutons verts avec une croix noire pour zoomer, sur le bouton vert avec un tiret pour effectuer un zoom arrière, ou sur les flèches vertes pour les cartes adjacentes.


METAR-TAF: